Mer Rouge, Louisiana
Current Conditions -  °F | °C
As of 6:55 AM on Friday 24 Oct 2014 (Local Time) from KBQP Reporting Station
Haze Haze  
Wind Chill: 40°   Ceiling: Unl
Heat Index: 40°   Visibility: 4mi
Dew Point: 40°   Wind: 0mph
Humidity: 98%   Direction: NA
Pressure: 30.16"   Gusts: NA
Location:  32.78°N, 91.79°W
Report Text: KBQP 241155Z AUTO 00000KT 4SM BR CLR 05/04 A3016 RMK AO2 T00450042 10070 20045
Loading
Personal Weather Stations






























Interactive Weather Map
Tropical Storm Tracking
New forecast layout! Learn more

10-Day Weather Forecast

Advertisements
Track Severe Weather on mobile